Time;durP1;ratioP1;P1;durP2;ratioP2;P2;SDS_P1;SDS_P2;PMS_P1;PMS_P2;Temp;Humidity;BMP_temperature;BMP_pressure;BME280_temperature;BME280_humidity;BME280_pressure;Samples;Min_cycle;Max_cycle;Signal;HPM_P1;HPM_P2
2023/10/03 00:02:21;;;;;;;11.43;8.43;;;;;;;;;;5051601;28;20664;-53
2023/10/03 00:04:48;;;;;;;13.63;8.30;;;;;;;;;;5052132;28;20207;-53
2023/10/03 00:07:14;;;;;;;12.97;8.00;;;;;;;;;;5052023;28;20204;-53
2023/10/03 00:09:43;;;;;;;10.00;7.80;;;;;;;;;;5051877;28;20199;-53
2023/10/03 00:12:09;;;;;;;11.47;8.47;;;;;;;;;;5052144;28;20202;-53
2023/10/03 00:14:35;;;;;;;13.40;8.57;;;;;;;;;;5051368;28;20204;-53
2023/10/03 00:17:02;;;;;;;11.20;8.13;;;;;;;;;;5052060;28;20200;-53
2023/10/03 00:19:28;;;;;;;13.37;7.90;;;;;;;;;;5052023;28;20215;-53
2023/10/03 00:21:54;;;;;;;14.57;9.07;;;;;;;;;;5051555;28;20258;-53
2023/10/03 00:24:20;;;;;;;12.47;8.20;;;;;;;;;;5051926;28;20192;-53
2023/10/03 00:26:46;;;;;;;12.50;9.00;;;;;;;;;;5050825;28;20697;-53
2023/10/03 00:29:13;;;;;;;12.70;7.87;;;;;;;;;;5051926;28;20238;-53
2023/10/03 00:31:39;;;;;;;12.43;8.63;;;;;;;;;;5051649;28;20291;-53
2023/10/03 00:34:07;;;;;;;13.73;9.40;;;;;;;;;;5051888;28;20254;-53
2023/10/03 00:36:33;;;;;;;13.93;8.90;;;;;;;;;;5051464;28;20733;-54
2023/10/03 00:38:59;;;;;;;13.43;8.63;;;;;;;;;;5051312;28;20236;-54
2023/10/03 00:41:25;;;;;;;13.37;8.63;;;;;;;;;;5051648;28;20200;-53
2023/10/03 00:43:56;;;;;;;12.83;8.50;;;;;;;;;;5046157;28;20223;-56
2023/10/03 00:46:22;;;;;;;13.53;8.40;;;;;;;;;;5051518;28;20196;-54
2023/10/03 00:48:48;;;;;;;12.17;8.10;;;;;;;;;;5051553;28;20192;-54
2023/10/03 00:51:20;;;;;;;10.90;8.03;;;;;;;;;;5051549;28;20263;-54
2023/10/03 00:53:46;;;;;;;12.33;8.20;;;;;;;;;;5051526;28;20562;-54
2023/10/03 00:56:12;;;;;;;13.77;8.77;;;;;;;;;;5051433;28;20287;-54
2023/10/03 00:58:41;;;;;;;13.17;8.77;;;;;;;;;;5051410;28;20501;-54
2023/10/03 01:01:09;;;;;;;12.90;8.20;;;;;;;;;;5051426;28;20212;-55
2023/10/03 01:03:39;;;;;;;13.40;8.33;;;;;;;;;;5051393;28;20232;-55
2023/10/03 01:06:08;;;;;;;11.50;8.10;;;;;;;;;;5051412;28;20207;-55
2023/10/03 01:08:36;;;;;;;11.20;7.77;;;;;;;;;;5051460;28;20352;-54
2023/10/03 01:11:04;;;;;;;13.10;8.60;;;;;;;;;;5051461;28;20684;-55
2023/10/03 01:13:30;;;;;;;11.57;7.67;;;;;;;;;;5051258;28;20275;-55
2023/10/03 01:15:56;;;;;;;12.40;8.53;;;;;;;;;;5051281;28;20217;-55
2023/10/03 01:18:26;;;;;;;11.83;8.10;;;;;;;;;;5051287;28;20208;-55
2023/10/03 01:20:55;;;;;;;13.37;8.17;;;;;;;;;;5051110;28;20200;-55
2023/10/03 01:23:23;;;;;;;12.80;8.20;;;;;;;;;;5051319;28;20722;-55
2023/10/03 01:25:51;;;;;;;10.97;8.23;;;;;;;;;;5051173;28;20204;-54
2023/10/03 01:28:17;;;;;;;11.73;8.90;;;;;;;;;;5051326;28;20208;-55
2023/10/03 01:30:43;;;;;;;9.90;7.57;;;;;;;;;;5051014;28;20219;-55
2023/10/03 01:33:10;;;;;;;12.77;8.83;;;;;;;;;;5051106;28;20689;-55
2023/10/03 01:35:36;;;;;;;12.33;8.03;;;;;;;;;;5051011;28;20220;-55
2023/10/03 01:38:04;;;;;;;11.90;8.37;;;;;;;;;;5051192;28;20681;-55
2023/10/03 01:40:31;;;;;;;11.60;8.03;;;;;;;;;;5054581;28;20244;-55
2023/10/03 01:42:57;;;;;;;13.40;8.30;;;;;;;;;;5054757;28;20236;-55
2023/10/03 01:45:24;;;;;;;12.93;8.80;;;;;;;;;;5054830;28;20201;-55
2023/10/03 01:47:51;;;;;;;12.33;8.30;;;;;;;;;;5054816;28;20247;-55
2023/10/03 01:50:18;;;;;;;11.97;8.27;;;;;;;;;;5054830;28;20288;-55
2023/10/03 01:52:46;;;;;;;11.90;7.93;;;;;;;;;;5054667;28;20271;-55
2023/10/03 01:55:12;;;;;;;13.90;8.73;;;;;;;;;;5054684;28;20439;-55
2023/10/03 01:57:40;;;;;;;12.17;8.53;;;;;;;;;;5054725;28;20284;-55
2023/10/03 02:00:26;;;;;;;10.77;7.57;;;;;;;;;;5054674;28;20216;-55
2023/10/03 02:02:53;;;;;;;12.10;7.80;;;;;;;;;;5054432;28;20227;-55
2023/10/03 02:05:19;;;;;;;15.17;9.37;;;;;;;;;;5054624;28;20212;-55
2023/10/03 02:07:45;;;;;;;13.60;8.53;;;;;;;;;;5054388;28;20322;-55
2023/10/03 02:10:12;;;;;;;12.20;8.60;;;;;;;;;;5054346;28;20281;-55
2023/10/03 02:12:48;;;;;;;13.07;7.70;;;;;;;;;;5054192;28;20768;-55
2023/10/03 02:15:14;;;;;;;13.63;9.27;;;;;;;;;;5054377;28;20210;-55
2023/10/03 02:17:40;;;;;;;14.00;8.93;;;;;;;;;;5054123;28;20310;-55
2023/10/03 02:20:15;;;;;;;12.87;9.33;;;;;;;;;;5054250;28;20196;-55
2023/10/03 02:22:41;;;;;;;12.67;8.30;;;;;;;;;;5054039;28;20220;-55
2023/10/03 02:25:09;;;;;;;13.73;8.80;;;;;;;;;;5054051;28;20561;-55
2023/10/03 02:27:35;;;;;;;14.50;8.73;;;;;;;;;;5054089;28;20212;-55
2023/10/03 02:30:12;;;;;;;14.23;9.10;;;;;;;;;;5054139;28;20200;-55
2023/10/03 02:32:38;;;;;;;13.30;8.50;;;;;;;;;;5054010;28;20277;-55
2023/10/03 02:35:06;;;;;;;14.97;9.40;;;;;;;;;;5053980;28;20314;-55
2023/10/03 02:37:33;;;;;;;13.97;9.67;;;;;;;;;;5054244;28;20287;-55
2023/10/03 02:40:00;;;;;;;15.13;9.57;;;;;;;;;;5053451;28;20673;-55
2023/10/03 02:42:26;;;;;;;14.43;9.20;;;;;;;;;;5053853;28;20714;-55
2023/10/03 02:44:52;;;;;;;12.80;8.57;;;;;;;;;;5053598;28;20227;-55
2023/10/03 02:47:21;;;;;;;13.47;9.00;;;;;;;;;;5053817;28;20208;-55
2023/10/03 02:49:49;;;;;;;14.23;9.67;;;;;;;;;;5053175;28;20565;-56
2023/10/03 02:52:15;;;;;;;14.10;8.80;;;;;;;;;;5052338;28;20408;-55
2023/10/03 02:54:42;;;;;;;13.37;9.00;;;;;;;;;;5053405;28;20208;-55
2023/10/03 02:57:08;;;;;;;15.53;9.87;;;;;;;;;;5053523;28;20200;-55
2023/10/03 02:59:34;;;;;;;14.97;9.87;;;;;;;;;;5053517;28;20196;-55
2023/10/03 03:02:00;;;;;;;16.33;10.27;;;;;;;;;;5053505;28;20232;-55
2023/10/03 03:04:29;;;;;;;14.90;9.73;;;;;;;;;;5053370;28;20204;-55
2023/10/03 03:07:01;;;;;;;16.97;9.70;;;;;;;;;;5053203;28;20287;-55
2023/10/03 03:09:28;;;;;;;16.57;10.17;;;;;;;;;;5053186;28;20205;-55
2023/10/03 03:11:54;;;;;;;17.13;9.23;;;;;;;;;;5053094;28;20203;-55
2023/10/03 03:14:20;;;;;;;15.37;9.43;;;;;;;;;;5053334;28;20546;-55
2023/10/03 03:16:47;;;;;;;15.10;9.47;;;;;;;;;;5053110;28;20619;-55
2023/10/03 03:19:14;;;;;;;14.80;9.57;;;;;;;;;;5053115;28;20200;-55
2023/10/03 03:21:42;;;;;;;13.90;9.33;;;;;;;;;;5052854;28;20196;-55
2023/10/03 03:24:08;;;;;;;14.27;9.17;;;;;;;;;;5052921;28;20208;-55
2023/10/03 03:26:39;;;;;;;15.97;9.10;;;;;;;;;;5052976;28;20268;-55
2023/10/03 03:29:19;;;;;;;19.00;10.07;;;;;;;;;;5053060;28;20204;-55
2023/10/03 03:31:45;;;;;;;18.53;10.63;;;;;;;;;;5052831;28;20196;-55
2023/10/03 03:34:11;;;;;;;15.00;9.77;;;;;;;;;;5052851;28;20200;-55
2023/10/03 03:36:40;;;;;;;15.40;9.90;;;;;;;;;;5052627;28;20216;-55
2023/10/03 03:39:15;;;;;;;14.60;9.53;;;;;;;;;;5052537;28;20236;-55
2023/10/03 03:41:42;;;;;;;19.77;10.70;;;;;;;;;;5052566;28;20203;-55
2023/10/03 03:44:12;;;;;;;16.27;10.30;;;;;;;;;;5052561;28;20204;-55
2023/10/03 03:46:39;;;;;;;16.23;10.40;;;;;;;;;;5052658;28;20248;-55
2023/10/03 03:49:06;;;;;;;15.50;10.13;;;;;;;;;;5052552;28;20196;-55
2023/10/03 03:51:32;;;;;;;14.50;9.97;;;;;;;;;;5052565;28;20185;-55
2023/10/03 03:54:00;;;;;;;13.93;9.80;;;;;;;;;;5052476;28;20211;-55
2023/10/03 03:56:28;;;;;;;15.80;9.63;;;;;;;;;;5052315;28;20499;-55
2023/10/03 03:58:54;;;;;;;14.43;9.87;;;;;;;;;;5052203;28;20224;-55
2023/10/03 04:01:20;;;;;;;15.97;10.07;;;;;;;;;;5051636;28;20241;-55
2023/10/03 04:03:49;;;;;;;19.07;11.13;;;;;;;;;;5052187;28;20232;-55
2023/10/03 04:06:15;;;;;;;15.00;10.33;;;;;;;;;;5052266;28;20223;-55
2023/10/03 04:08:42;;;;;;;15.47;9.77;;;;;;;;;;5052090;28;20216;-55
2023/10/03 04:11:08;;;;;;;15.10;10.13;;;;;;;;;;5052078;28;20655;-55
2023/10/03 04:13:39;;;;;;;14.53;9.43;;;;;;;;;;5052121;28;20681;-55
2023/10/03 04:16:06;;;;;;;15.43;9.83;;;;;;;;;;5052214;28;20205;-55
2023/10/03 04:18:32;;;;;;;16.10;10.37;;;;;;;;;;5052082;28;20203;-55
2023/10/03 04:20:58;;;;;;;18.73;10.73;;;;;;;;;;5051871;28;20192;-55
2023/10/03 04:23:24;;;;;;;16.40;10.43;;;;;;;;;;5051962;28;20309;-55
2023/10/03 04:25:50;;;;;;;15.60;10.33;;;;;;;;;;5051884;28;20615;-55
2023/10/03 04:28:17;;;;;;;17.17;10.57;;;;;;;;;;5051985;28;20204;-55
2023/10/03 04:30:45;;;;;;;18.27;10.70;;;;;;;;;;5051742;28;20201;-55
2023/10/03 04:33:17;;;;;;;20.00;10.77;;;;;;;;;;5051805;28;20243;-54
2023/10/03 04:35:43;;;;;;;16.10;10.13;;;;;;;;;;5051612;28;20624;-54
2023/10/03 04:38:14;;;;;;;17.67;10.50;;;;;;;;;;5051733;28;20249;-54
2023/10/03 04:40:41;;;;;;;17.47;10.97;;;;;;;;;;5051335;28;20247;-54
2023/10/03 04:43:10;;;;;;;17.77;10.03;;;;;;;;;;5051784;28;20323;-54
2023/10/03 04:45:37;;;;;;;16.67;10.47;;;;;;;;;;5051554;28;20204;-54
2023/10/03 04:48:04;;;;;;;17.17;10.27;;;;;;;;;;5051753;28;20234;-54
2023/10/03 04:50:30;;;;;;;17.43;10.47;;;;;;;;;;5051578;28;20204;-55
2023/10/03 04:52:56;;;;;;;17.40;10.80;;;;;;;;;;5051433;28;20192;-54
2023/10/03 04:55:23;;;;;;;17.93;10.50;;;;;;;;;;5051377;28;20234;-54
2023/10/03 04:57:50;;;;;;;16.47;10.07;;;;;;;;;;5051537;28;20243;-54
2023/10/03 05:00:16;;;;;;;16.57;10.07;;;;;;;;;;5051432;28;20720;-54
2023/10/03 05:02:46;;;;;;;18.73;11.20;;;;;;;;;;5051354;28;20212;-54
2023/10/03 05:05:14;;;;;;;16.00;10.73;;;;;;;;;;5051285;28;20700;-54
2023/10/03 05:07:40;;;;;;;17.03;10.40;;;;;;;;;;5051547;28;20185;-54
2023/10/03 05:10:06;;;;;;;16.27;10.40;;;;;;;;;;5051421;28;20603;-54
2023/10/03 05:12:32;;;;;;;16.00;10.53;;;;;;;;;;5052327;28;20204;-54
2023/10/03 05:14:58;;;;;;;18.20;11.23;;;;;;;;;;5055322;28;20729;-54
2023/10/03 05:17:26;;;;;;;17.67;10.20;;;;;;;;;;5055293;28;20279;-54
2023/10/03 05:19:53;;;;;;;16.47;10.50;;;;;;;;;;5055297;28;20204;-54
2023/10/03 05:22:23;;;;;;;17.47;10.73;;;;;;;;;;5055384;28;20231;-54
2023/10/03 05:24:49;;;;;;;18.67;9.70;;;;;;;;;;5055176;28;20200;-54
2023/10/03 05:27:16;;;;;;;15.37;9.67;;;;;;;;;;5055242;28;20204;-54
2023/10/03 05:29:43;;;;;;;15.03;9.97;;;;;;;;;;5055137;28;20225;-54
2023/10/03 05:32:09;;;;;;;15.90;10.87;;;;;;;;;;5054990;28;20261;-54
2023/10/03 05:34:35;;;;;;;16.93;10.50;;;;;;;;;;5055051;28;20200;-54
2023/10/03 05:37:02;;;;;;;17.07;10.53;;;;;;;;;;5055058;28;20228;-54
2023/10/03 05:39:31;;;;;;;16.67;10.40;;;;;;;;;;5054394;28;20269;-54
2023/10/03 05:41:57;;;;;;;14.77;9.53;;;;;;;;;;5053851;28;20204;-54
2023/10/03 05:44:23;;;;;;;17.10;10.13;;;;;;;;;;5054677;28;20208;-54
2023/10/03 05:46:55;;;;;;;17.73;10.40;;;;;;;;;;5054722;28;20228;-54
2023/10/03 05:49:24;;;;;;;16.47;9.93;;;;;;;;;;5054922;28;20196;-54
2023/10/03 05:51:54;;;;;;;15.10;9.23;;;;;;;;;;5054669;28;20541;-54
2023/10/03 05:54:20;;;;;;;15.37;10.10;;;;;;;;;;5054793;28;20694;-54
2023/10/03 05:56:47;;;;;;;13.70;9.80;;;;;;;;;;5054602;28;20291;-54
2023/10/03 05:59:14;;;;;;;18.50;9.57;;;;;;;;;;5054534;28;20602;-54
2023/10/03 06:01:42;;;;;;;14.40;9.37;;;;;;;;;;5054484;28;20617;-54
2023/10/03 06:04:08;;;;;;;17.03;10.23;;;;;;;;;;5054353;28;20225;-54
2023/10/03 06:06:34;;;;;;;18.47;10.90;;;;;;;;;;5054595;28;20209;-54
2023/10/03 06:09:00;;;;;;;16.40;9.73;;;;;;;;;;5054289;28;20200;-54
2023/10/03 06:11:26;;;;;;;17.20;9.53;;;;;;;;;;5054317;28;20297;-55
2023/10/03 06:13:53;;;;;;;15.23;9.10;;;;;;;;;;5054106;28;20232;-54
2023/10/03 06:16:20;;;;;;;14.67;9.37;;;;;;;;;;5054188;28;20200;-54
2023/10/03 06:18:46;;;;;;;15.10;9.23;;;;;;;;;;5053941;28;20211;-53
2023/10/03 06:21:12;;;;;;;14.97;9.67;;;;;;;;;;5053947;28;20231;-54
2023/10/03 06:23:38;;;;;;;18.53;9.43;;;;;;;;;;5053590;28;20228;-54
2023/10/03 06:26:04;;;;;;;16.87;9.67;;;;;;;;;;5053178;28;20203;-54
2023/10/03 06:28:31;;;;;;;13.63;9.67;;;;;;;;;;5053740;28;20666;-54
2023/10/03 06:30:58;;;;;;;15.87;10.00;;;;;;;;;;5053541;28;20215;-54
2023/10/03 06:33:24;;;;;;;14.13;9.03;;;;;;;;;;5053609;28;20411;-54
2023/10/03 06:35:51;;;;;;;15.00;8.87;;;;;;;;;;5053535;28;20238;-54
2023/10/03 06:38:17;;;;;;;17.77;10.40;;;;;;;;;;5053756;28;20202;-54
2023/10/03 06:40:43;;;;;;;15.97;8.93;;;;;;;;;;5053065;28;20235;-54
2023/10/03 06:43:10;;;;;;;15.93;9.17;;;;;;;;;;5053337;28;20912;-54
2023/10/03 06:45:36;;;;;;;16.67;9.17;;;;;;;;;;5053587;28;20691;-54
2023/10/03 06:48:03;;;;;;;15.97;9.27;;;;;;;;;;5053451;28;20316;-54
2023/10/03 06:50:30;;;;;;;15.87;9.53;;;;;;;;;;5053502;28;20225;-57
2023/10/03 06:52:56;;;;;;;15.30;9.27;;;;;;;;;;5053247;28;20646;-56
2023/10/03 06:55:22;;;;;;;16.67;10.20;;;;;;;;;;5053291;28;20214;-54
2023/10/03 06:57:48;;;;;;;16.63;9.20;;;;;;;;;;5053495;28;20738;-55
2023/10/03 07:00:15;;;;;;;14.50;9.00;;;;;;;;;;5053239;28;20549;-56
2023/10/03 07:02:41;;;;;;;17.70;9.93;;;;;;;;;;5052965;28;20229;-55
2023/10/03 07:05:10;;;;;;;14.80;9.00;;;;;;;;;;5053191;28;20199;-56
2023/10/03 07:07:37;;;;;;;18.07;10.50;;;;;;;;;;5053028;28;20547;-56
2023/10/03 07:10:04;;;;;;;14.47;9.60;;;;;;;;;;5053194;28;20196;-55
2023/10/03 07:12:30;;;;;;;14.50;9.40;;;;;;;;;;5053037;28;20200;-55
2023/10/03 07:14:56;;;;;;;14.83;8.90;;;;;;;;;;5052826;28;20478;-55
2023/10/03 07:17:23;;;;;;;15.97;9.50;;;;;;;;;;5052823;28;20558;-55
2023/10/03 07:19:49;;;;;;;14.07;8.83;;;;;;;;;;5052811;28;20213;-55
2023/10/03 07:22:19;;;;;;;16.27;9.77;;;;;;;;;;5052830;28;20200;-55
2023/10/03 07:24:45;;;;;;;14.50;8.90;;;;;;;;;;5052563;28;20218;-55
2023/10/03 07:27:14;;;;;;;14.80;9.43;;;;;;;;;;5052748;28;20203;-55
2023/10/03 07:29:42;;;;;;;18.00;8.90;;;;;;;;;;5052477;28;20278;-55
2023/10/03 07:32:12;;;;;;;15.80;9.00;;;;;;;;;;5052562;28;20230;-55
2023/10/03 07:34:42;;;;;;;14.23;8.37;;;;;;;;;;5052681;28;20203;-55
2023/10/03 07:37:09;;;;;;;14.20;8.87;;;;;;;;;;5052693;28;20207;-55
2023/10/03 07:39:38;;;;;;;13.17;8.40;;;;;;;;;;5052332;28;20239;-55
2023/10/03 07:42:05;;;;;;;14.53;8.50;;;;;;;;;;5052370;28;20231;-60
2023/10/03 07:44:31;;;;;;;15.17;9.23;;;;;;;;;;5052531;28;20218;-56
2023/10/03 07:46:57;;;;;;;15.33;8.33;;;;;;;;;;5052263;28;20287;-56
2023/10/03 07:49:23;;;;;;;12.33;8.63;;;;;;;;;;5052253;28;20242;-55
2023/10/03 07:51:50;;;;;;;14.17;8.57;;;;;;;;;;5052281;28;20204;-54
2023/10/03 07:54:19;;;;;;;13.33;7.83;;;;;;;;;;5052198;28;20216;-56
2023/10/03 07:56:48;;;;;;;17.77;8.20;;;;;;;;;;5052081;28;20279;-55
2023/10/03 07:59:14;;;;;;;14.60;8.13;;;;;;;;;;5052536;28;20214;-55
2023/10/03 08:01:40;;;;;;;15.27;8.40;;;;;;;;;;5051819;28;20213;-56
2023/10/03 08:04:08;;;;;;;15.30;8.03;;;;;;;;;;5051858;28;20234;-56
2023/10/03 08:06:34;;;;;;;13.80;8.03;;;;;;;;;;5052239;28;20208;-55
2023/10/03 08:09:00;;;;;;;17.27;8.47;;;;;;;;;;5051854;28;20205;-55
2023/10/03 08:11:29;;;;;;;14.73;8.37;;;;;;;;;;5051961;28;20575;-55
2023/10/03 08:13:56;;;;;;;13.97;8.50;;;;;;;;;;5051744;28;20218;-55
2023/10/03 08:16:22;;;;;;;13.47;7.80;;;;;;;;;;5051803;28;20278;-55
2023/10/03 08:18:57;;;;;;;18.87;8.63;;;;;;;;;;5051828;28;20216;-58
2023/10/03 08:21:24;;;;;;;11.87;7.80;;;;;;;;;;5051727;28;20253;-56
2023/10/03 08:23:51;;;;;;;14.93;8.03;;;;;;;;;;5051606;28;20220;-57
2023/10/03 08:26:17;;;;;;;14.40;8.50;;;;;;;;;;5051750;28;20204;-56
2023/10/03 08:28:43;;;;;;;14.90;8.30;;;;;;;;;;5051344;28;20677;-56
2023/10/03 08:31:14;;;;;;;13.97;7.90;;;;;;;;;;5051669;28;20267;-57
2023/10/03 08:33:40;;;;;;;15.93;8.37;;;;;;;;;;5051562;28;20632;-56
2023/10/03 08:36:14;;;;;;;11.67;7.67;;;;;;;;;;5051621;28;20248;-56
2023/10/03 08:38:43;;;;;;;12.43;7.80;;;;;;;;;;5051350;28;20714;-56
2023/10/03 08:41:11;;;;;;;14.37;7.13;;;;;;;;;;5051499;28;20608;-57
2023/10/03 08:43:39;;;;;;;12.93;7.43;;;;;;;;;;5051417;28;20227;-57
2023/10/03 08:46:09;;;;;;;16.77;7.30;;;;;;;;;;5051558;28;20206;-57
2023/10/03 08:48:43;;;;;;;11.47;7.13;;;;;;;;;;5051364;28;20215;-57
2023/10/03 08:51:13;;;;;;;10.20;6.60;;;;;;;;;;5051548;28;20254;-57
2023/10/03 08:53:40;;;;;;;14.30;7.50;;;;;;;;;;5051436;28;20242;-57
2023/10/03 08:56:08;;;;;;;11.43;7.30;;;;;;;;;;5051738;28;20211;-57
2023/10/03 08:58:34;;;;;;;9.47;5.93;;;;;;;;;;5051650;28;20208;-57
2023/10/03 09:01:02;;;;;;;6.03;4.77;;;;;;;;;;5051441;28;20253;-57
2023/10/03 09:03:47;;;;;;;7.00;4.60;;;;;;;;;;5051367;28;20322;-58
2023/10/03 09:06:19;;;;;;;8.50;4.23;;;;;;;;;;5051448;28;20747;-56
2023/10/03 09:08:46;;;;;;;6.20;4.10;;;;;;;;;;5051377;28;20208;-56
2023/10/03 09:11:13;;;;;;;7.03;4.00;;;;;;;;;;5051291;28;20299;-57
2023/10/03 09:13:40;;;;;;;10.17;4.10;;;;;;;;;;5051347;28;20257;-57
2023/10/03 09:16:09;;;;;;;7.67;3.50;;;;;;;;;;5051388;28;20290;-56
2023/10/03 09:18:41;;;;;;;7.07;3.40;;;;;;;;;;5051438;28;20192;-57
2023/10/03 09:21:08;;;;;;;6.27;2.90;;;;;;;;;;5051396;28;20220;-55
2023/10/03 09:23:59;;;;;;;8.07;3.00;;;;;;;;;;5051328;28;20220;-56
2023/10/03 09:26:25;;;;;;;5.63;2.67;;;;;;;;;;5051265;28;20977;-56
2023/10/03 09:28:51;;;;;;;7.13;2.57;;;;;;;;;;5051280;28;20204;-56
2023/10/03 09:31:22;;;;;;;4.80;2.50;;;;;;;;;;5051368;28;20204;-56
2023/10/03 09:33:48;;;;;;;6.03;2.87;;;;;;;;;;5051300;28;20207;-57
2023/10/03 09:36:15;;;;;;;4.50;2.60;;;;;;;;;;5051114;28;20682;-57
2023/10/03 09:38:42;;;;;;;5.43;2.43;;;;;;;;;;5050763;28;20240;-57
2023/10/03 09:41:16;;;;;;;7.13;2.73;;;;;;;;;;5051132;28;20208;-57
2023/10/03 09:43:44;;;;;;;7.03;2.80;;;;;;;;;;5050990;28;20356;-56
2023/10/03 09:46:10;;;;;;;6.60;2.93;;;;;;;;;;5050924;28;20200;-57
2023/10/03 09:48:37;;;;;;;6.07;2.77;;;;;;;;;;5051093;28;20207;-57
2023/10/03 09:51:05;;;;;;;10.43;2.97;;;;;;;;;;5051021;28;20201;-57
2023/10/03 09:53:32;;;;;;;4.83;2.40;;;;;;;;;;5051030;28;20223;-56
2023/10/03 09:56:00;;;;;;;5.07;2.57;;;;;;;;;;5050923;28;20201;-57
2023/10/03 09:58:33;;;;;;;5.57;2.70;;;;;;;;;;5050821;28;20208;-57
2023/10/03 10:00:59;;;;;;;5.80;3.00;;;;;;;;;;5053614;28;20224;-56
2023/10/03 10:03:30;;;;;;;5.50;2.83;;;;;;;;;;5054436;28;20239;-56
2023/10/03 10:06:04;;;;;;;5.73;2.50;;;;;;;;;;5054481;28;20203;-56
2023/10/03 10:08:35;;;;;;;6.73;2.80;;;;;;;;;;5054476;28;20191;-56
2023/10/03 10:11:09;;;;;;;6.50;2.60;;;;;;;;;;5054373;28;20279;-56
2023/10/03 10:13:37;;;;;;;5.03;2.73;;;;;;;;;;5054405;28;20223;-56
2023/10/03 10:16:16;;;;;;;3.73;2.50;;;;;;;;;;5054164;28;20207;-56
2023/10/03 10:18:57;;;;;;;3.53;2.63;;;;;;;;;;5054305;28;20207;-56
2023/10/03 10:21:24;;;;;;;4.50;3.00;;;;;;;;;;5054077;28;20658;-56
2023/10/03 10:24:05;;;;;;;5.33;2.77;;;;;;;;;;5054044;28;20330;-57
2023/10/03 10:26:34;;;;;;;5.53;2.93;;;;;;;;;;5053921;28;20216;-58
2023/10/03 10:29:05;;;;;;;4.23;2.70;;;;;;;;;;5053873;28;20228;-56
2023/10/03 10:31:37;;;;;;;3.47;2.83;;;;;;;;;;5054155;28;20254;-57
2023/10/03 10:34:20;;;;;;;6.20;3.03;;;;;;;;;;5054082;28;20196;-56
2023/10/03 10:36:56;;;;;;;4.73;2.73;;;;;;;;;;5045909;28;20232;-57
2023/10/03 10:39:25;;;;;;;3.13;2.77;;;;;;;;;;5053581;28;20246;-56
2023/10/03 10:42:06;;;;;;;9.03;3.47;;;;;;;;;;5053833;28;20199;-57
2023/10/03 10:44:33;;;;;;;4.83;3.27;;;;;;;;;;5053656;28;20318;-58
2023/10/03 10:47:05;;;;;;;6.93;3.23;;;;;;;;;;5053660;28;20287;-56
2023/10/03 10:49:51;;;;;;;4.50;2.93;;;;;;;;;;5053881;28;20204;-56
2023/10/03 10:52:18;;;;;;;6.30;2.73;;;;;;;;;;5053990;28;20623;-56
2023/10/03 10:54:45;;;;;;;8.60;3.10;;;;;;;;;;5053580;28;20642;-56
2023/10/03 10:57:11;;;;;;;7.37;3.03;;;;;;;;;;5053533;28;20612;-56
2023/10/03 10:59:39;;;;;;;4.13;2.70;;;;;;;;;;5053609;28;20230;-56
2023/10/03 11:02:14;;;;;;;5.80;2.93;;;;;;;;;;5053607;28;20220;-55
2023/10/03 11:04:40;;;;;;;3.60;3.03;;;;;;;;;;5053526;28;20318;-55
2023/10/03 11:07:06;;;;;;;7.53;2.87;;;;;;;;;;5053550;28;20203;-55
2023/10/03 11:09:36;;;;;;;6.77;3.47;;;;;;;;;;5053560;28;20218;-55
2023/10/03 11:12:06;;;;;;;4.40;3.20;;;;;;;;;;5044179;28;20220;-56
2023/10/03 11:14:33;;;;;;;6.23;3.60;;;;;;;;;;5041838;28;20185;-55
2023/10/03 11:17:01;;;;;;;9.73;3.50;;;;;;;;;;5042805;28;20207;-55
2023/10/03 11:19:32;;;;;;;4.37;3.40;;;;;;;;;;5043617;28;20581;-55
2023/10/03 11:21:58;;;;;;;4.77;3.37;;;;;;;;;;5043556;28;20191;-54
2023/10/03 11:24:26;;;;;;;7.27;3.33;;;;;;;;;;5048683;28;20254;-55
2023/10/03 11:26:53;;;;;;;7.87;3.80;;;;;;;;;;5052947;28;20204;-55
2023/10/03 11:29:36;;;;;;;5.20;3.80;;;;;;;;;;5053111;28;20278;-54
2023/10/03 11:32:04;;;;;;;6.40;3.80;;;;;;;;;;5052893;28;20225;-54
2023/10/03 11:34:31;;;;;;;8.90;3.40;;;;;;;;;;5052854;28;20200;-55
2023/10/03 11:36:58;;;;;;;7.43;3.40;;;;;;;;;;5052633;28;20219;-55
2023/10/03 11:39:26;;;;;;;4.77;3.40;;;;;;;;;;5052543;28;20326;-56
2023/10/03 11:41:52;;;;;;;6.30;3.43;;;;;;;;;;5052570;28;20261;-53
2023/10/03 11:44:19;;;;;;;7.67;3.97;;;;;;;;;;5052526;28;20633;-52
2023/10/03 11:46:46;;;;;;;4.53;2.00;;;;;;;;;;5052544;28;20204;-53
2023/10/03 11:49:15;;;;;;;4.27;2.27;;;;;;;;;;5052629;28;20222;-53
2023/10/03 11:51:43;;;;;;;2.90;1.80;;;;;;;;;;5052541;28;20623;-53
2023/10/03 11:54:09;;;;;;;3.87;1.93;;;;;;;;;;5052307;28;20199;-53
2023/10/03 11:56:39;;;;;;;4.20;2.20;;;;;;;;;;5052527;28;20214;-53
2023/10/03 11:59:05;;;;;;;3.57;2.10;;;;;;;;;;5052591;28;20211;-53
2023/10/03 12:01:31;;;;;;;4.70;2.00;;;;;;;;;;5052370;28;20209;-54
2023/10/03 12:03:57;;;;;;;2.93;2.10;;;;;;;;;;5052109;28;20223;-52
2023/10/03 12:06:25;;;;;;;2.60;2.10;;;;;;;;;;5052196;28;20285;-53
2023/10/03 12:08:50;;;;;;;3.83;2.20;;;;;;;;;;5051999;28;20213;-53
2023/10/03 12:11:16;;;;;;;2.43;2.00;;;;;;;;;;5052233;28;20184;-53
2023/10/03 12:13:43;;;;;;;2.87;1.97;;;;;;;;;;5052125;28;20594;-53
2023/10/03 12:16:09;;;;;;;3.43;2.40;;;;;;;;;;5052012;28;20222;-53
2023/10/03 12:18:37;;;;;;;2.77;2.40;;;;;;;;;;5052131;28;20843;-53
2023/10/03 12:21:04;;;;;;;5.83;2.80;;;;;;;;;;5052005;28;20203;-53
2023/10/03 12:23:31;;;;;;;4.00;2.50;;;;;;;;;;5051131;28;20237;-53
2023/10/03 12:25:58;;;;;;;5.23;2.40;;;;;;;;;;5051691;28;20256;-53
2023/10/03 12:28:24;;;;;;;5.80;2.70;;;;;;;;;;5051619;28;20552;-53
2023/10/03 12:30:51;;;;;;;2.37;1.97;;;;;;;;;;5051706;28;20665;-52
2023/10/03 12:33:19;;;;;;;2.80;1.80;;;;;;;;;;5051673;28;20198;-52
2023/10/03 12:35:45;;;;;;;2.77;1.50;;;;;;;;;;5051504;28;20216;-53
2023/10/03 12:38:11;;;;;;;3.33;1.97;;;;;;;;;;5051692;28;20375;-52
2023/10/03 12:40:39;;;;;;;1.90;1.20;;;;;;;;;;5051437;28;20234;-53
2023/10/03 12:43:07;;;;;;;1.10;1.00;;;;;;;;;;5051426;28;20462;-53
2023/10/03 12:45:33;;;;;;;1.37;1.07;;;;;;;;;;5051786;28;20197;-53
2023/10/03 12:47:59;;;;;;;1.60;0.97;;;;;;;;;;5051519;28;20217;-53
2023/10/03 12:50:26;;;;;;;1.63;1.10;;;;;;;;;;5051594;28;20204;-53
2023/10/03 12:52:53;;;;;;;1.83;0.90;;;;;;;;;;5051380;28;20204;-53
2023/10/03 12:55:19;;;;;;;2.50;1.27;;;;;;;;;;5051516;28;20654;-53
2023/10/03 12:57:48;;;;;;;1.50;0.93;;;;;;;;;;5051382;28;20204;-54
2023/10/03 13:00:20;;;;;;;1.60;1.10;;;;;;;;;;5051353;28;20263;-53
2023/10/03 13:02:47;;;;;;;1.97;1.30;;;;;;;;;;5051401;28;20280;-53
2023/10/03 13:05:13;;;;;;;1.60;1.20;;;;;;;;;;5051250;28;20196;-53
2023/10/03 13:07:39;;;;;;;1.70;1.27;;;;;;;;;;5051278;28;20658;-53
2023/10/03 13:10:06;;;;;;;2.50;0.90;;;;;;;;;;5051375;28;20206;-53
2023/10/03 13:12:33;;;;;;;4.13;1.27;;;;;;;;;;5051530;28;20204;-54
2023/10/03 13:15:02;;;;;;;1.80;1.20;;;;;;;;;;5051200;28;20287;-54
2023/10/03 13:17:28;;;;;;;2.57;1.17;;;;;;;;;;5051259;28;20266;-54
2023/10/03 13:19:55;;;;;;;1.67;1.23;;;;;;;;;;5051161;28;20194;-54
2023/10/03 13:22:21;;;;;;;2.73;1.43;;;;;;;;;;5051363;28;20207;-54
2023/10/03 13:24:47;;;;;;;2.03;1.30;;;;;;;;;;5051348;28;20220;-54
2023/10/03 13:27:14;;;;;;;1.50;1.40;;;;;;;;;;5051027;28;20675;-54
2023/10/03 13:29:41;;;;;;;3.37;1.63;;;;;;;;;;5051022;28;20701;-54
2023/10/03 13:32:09;;;;;;;5.53;1.63;;;;;;;;;;5050936;28;20288;-55
2023/10/03 13:34:35;;;;;;;1.50;1.40;;;;;;;;;;5053433;28;20573;-54
2023/10/03 13:37:02;;;;;;;2.40;1.30;;;;;;;;;;5054939;28;20224;-53
2023/10/03 13:39:29;;;;;;;2.80;1.20;;;;;;;;;;5054691;28;20240;-53
2023/10/03 13:41:57;;;;;;;1.50;1.27;;;;;;;;;;5054732;28;20803;-53
2023/10/03 13:44:24;;;;;;;2.07;1.00;;;;;;;;;;5054794;28;20239;-53
2023/10/03 13:46:51;;;;;;;1.50;0.97;;;;;;;;;;5054706;28;20236;-53
2023/10/03 13:49:19;;;;;;;2.33;1.20;;;;;;;;;;5055073;28;20227;-53
2023/10/03 13:51:46;;;;;;;3.43;1.60;;;;;;;;;;5054877;28;20208;-53
2023/10/03 13:54:13;;;;;;;2.30;1.43;;;;;;;;;;5054432;28;20246;-53
2023/10/03 13:56:39;;;;;;;2.87;1.43;;;;;;;;;;5054532;28;20196;-53
2023/10/03 13:59:05;;;;;;;2.80;1.57;;;;;;;;;;5054657;28;20288;-53
2023/10/03 14:01:31;;;;;;;1.73;1.50;;;;;;;;;;5054501;28;20678;-53
2023/10/03 14:03:57;;;;;;;2.00;1.73;;;;;;;;;;5054215;28;20283;-53
2023/10/03 14:06:29;;;;;;;2.87;2.00;;;;;;;;;;5054371;28;20194;-53
2023/10/03 14:08:56;;;;;;;3.70;1.93;;;;;;;;;;5054200;28;20611;-53
2023/10/03 14:11:22;;;;;;;2.57;1.70;;;;;;;;;;5054455;28;20237;-53
2023/10/03 14:13:50;;;;;;;3.30;1.70;;;;;;;;;;5054491;28;20201;-53
2023/10/03 14:16:16;;;;;;;4.57;1.60;;;;;;;;;;5054063;28;20197;-53
2023/10/03 14:18:42;;;;;;;1.57;1.47;;;;;;;;;;5054189;28;20314;-53
2023/10/03 14:21:10;;;;;;;2.77;1.70;;;;;;;;;;5053713;28;20212;-53
2023/10/03 14:23:37;;;;;;;4.50;2.57;;;;;;;;;;5053860;28;20636;-53
2023/10/03 14:26:04;;;;;;;2.57;2.00;;;;;;;;;;5054079;28;20255;-53
2023/10/03 14:28:31;;;;;;;2.10;1.87;;;;;;;;;;5054287;28;20208;-53
2023/10/03 14:30:57;;;;;;;1.83;1.53;;;;;;;;;;5053830;28;20558;-53
2023/10/03 14:33:23;;;;;;;2.70;1.60;;;;;;;;;;5053876;28;20287;-53
2023/10/03 14:35:49;;;;;;;4.73;1.93;;;;;;;;;;5053924;28;20360;-53
2023/10/03 14:38:15;;;;;;;3.17;1.60;;;;;;;;;;5053720;28;20197;-53